sensor_id;sensor_type;location;lat;lon;timestamp;pressure;altitude;pressure_sealevel;temperature;humidity
34065;BME280;20339;49.754;20.158;2023-08-24T00:00:12;96939.16;;;18.68;83.86
34065;BME280;20339;49.754;20.158;2023-08-24T00:03:00;96937.05;;;18.66;83.71
34065;BME280;20339;49.754;20.158;2023-08-24T00:05:33;96935.52;;;18.69;83.91
34065;BME280;20339;49.754;20.158;2023-08-24T00:08:05;96936.19;;;18.70;83.96
34065;BME280;20339;49.754;20.158;2023-08-24T00:10:34;96935.71;;;18.69;83.88
34065;BME280;20339;49.754;20.158;2023-08-24T00:13:03;96937.59;;;18.67;83.76
34065;BME280;20339;49.754;20.158;2023-08-24T00:15:32;96937.38;;;18.63;83.58
34065;BME280;20339;49.754;20.158;2023-08-24T00:18:00;96937.56;;;18.61;83.49
34065;BME280;20339;49.754;20.158;2023-08-24T00:20:28;96938.52;;;18.63;83.37
34065;BME280;20339;49.754;20.158;2023-08-24T00:22:56;96938.73;;;18.65;83.03
34065;BME280;20339;49.754;20.158;2023-08-24T00:25:25;96940.80;;;18.62;82.72
34065;BME280;20339;49.754;20.158;2023-08-24T00:27:53;96941.38;;;18.53;82.33
34065;BME280;20339;49.754;20.158;2023-08-24T00:30:22;96944.86;;;18.37;82.38
34065;BME280;20339;49.754;20.158;2023-08-24T00:32:51;96943.04;;;18.35;82.90
34065;BME280;20339;49.754;20.158;2023-08-24T00:35:19;96943.31;;;18.26;82.93
34065;BME280;20339;49.754;20.158;2023-08-24T00:37:47;96937.24;;;18.11;83.25
34065;BME280;20339;49.754;20.158;2023-08-24T00:40:16;96940.33;;;17.99;83.49
34065;BME280;20339;49.754;20.158;2023-08-24T00:42:45;96936.27;;;17.92;84.20
34065;BME280;20339;49.754;20.158;2023-08-24T00:45:14;96939.21;;;17.98;85.16
34065;BME280;20339;49.754;20.158;2023-08-24T00:47:44;96937.38;;;18.07;85.33
34065;BME280;20339;49.754;20.158;2023-08-24T00:50:13;96935.54;;;18.16;85.28
34065;BME280;20339;49.754;20.158;2023-08-24T00:52:42;96937.42;;;18.22;85.02
34065;BME280;20339;49.754;20.158;2023-08-24T00:55:11;96938.21;;;18.16;84.25
34065;BME280;20339;49.754;20.158;2023-08-24T00:57:40;96938.44;;;18.12;84.53
34065;BME280;20339;49.754;20.158;2023-08-24T01:00:11;96937.01;;;18.15;84.43
34065;BME280;20339;49.754;20.158;2023-08-24T01:02:39;96936.87;;;18.16;84.41
34065;BME280;20339;49.754;20.158;2023-08-24T01:05:08;96937.15;;;18.19;84.23
34065;BME280;20339;49.754;20.158;2023-08-24T01:07:39;96941.77;;;18.16;84.11
34065;BME280;20339;49.754;20.158;2023-08-24T01:10:10;96939.80;;;18.11;83.87
34065;BME280;20339;49.754;20.158;2023-08-24T01:12:52;96941.42;;;17.98;83.71
34065;BME280;20339;49.754;20.158;2023-08-24T01:15:26;96941.88;;;17.96;84.24
34065;BME280;20339;49.754;20.158;2023-08-24T01:18:03;96944.61;;;17.97;84.19
34065;BME280;20339;49.754;20.158;2023-08-24T01:20:33;96936.78;;;17.91;84.42
34065;BME280;20339;49.754;20.158;2023-08-24T01:23:07;96941.32;;;17.90;84.63
34065;BME280;20339;49.754;20.158;2023-08-24T01:25:40;96939.85;;;17.83;85.27
34065;BME280;20339;49.754;20.158;2023-08-24T01:28:11;96940.96;;;17.84;85.57
34065;BME280;20339;49.754;20.158;2023-08-24T01:30:41;96940.64;;;17.76;85.80
34065;BME280;20339;49.754;20.158;2023-08-24T01:33:11;96941.29;;;17.78;86.75
34065;BME280;20339;49.754;20.158;2023-08-24T01:35:39;96939.35;;;17.86;86.71
34065;BME280;20339;49.754;20.158;2023-08-24T01:38:08;96938.64;;;17.92;86.52
34065;BME280;20339;49.754;20.158;2023-08-24T01:40:48;96943.52;;;17.95;85.99
34065;BME280;20339;49.754;20.158;2023-08-24T01:43:20;96940.67;;;17.95;85.66
34065;BME280;20339;49.754;20.158;2023-08-24T01:45:49;96941.56;;;17.89;85.03
34065;BME280;20339;49.754;20.158;2023-08-24T01:48:20;96937.42;;;17.70;84.93
34065;BME280;20339;49.754;20.158;2023-08-24T01:50:50;96936.44;;;17.61;85.51
34065;BME280;20339;49.754;20.158;2023-08-24T01:53:19;96939.20;;;17.53;85.53
34065;BME280;20339;49.754;20.158;2023-08-24T01:55:47;96932.70;;;17.46;85.71
34065;BME280;20339;49.754;20.158;2023-08-24T01:58:16;96931.76;;;17.46;85.94
34065;BME280;20339;49.754;20.158;2023-08-24T02:00:44;96932.45;;;17.53;86.18
34065;BME280;20339;49.754;20.158;2023-08-24T02:03:12;96933.66;;;17.59;86.18
34065;BME280;20339;49.754;20.158;2023-08-24T02:05:41;96933.51;;;17.64;86.26
34065;BME280;20339;49.754;20.158;2023-08-24T02:08:09;96931.94;;;17.70;86.18
34065;BME280;20339;49.754;20.158;2023-08-24T02:10:37;96933.66;;;17.74;85.98
34065;BME280;20339;49.754;20.158;2023-08-24T02:13:06;96934.98;;;17.76;85.81
34065;BME280;20339;49.754;20.158;2023-08-24T02:15:34;96932.47;;;17.76;85.78
34065;BME280;20339;49.754;20.158;2023-08-24T02:18:02;96926.56;;;17.75;85.54
34065;BME280;20339;49.754;20.158;2023-08-24T02:20:34;96925.64;;;17.62;85.62
34065;BME280;20339;49.754;20.158;2023-08-24T02:23:01;96923.77;;;17.49;85.93
34065;BME280;20339;49.754;20.158;2023-08-24T02:25:30;96917.05;;;17.39;86.20
34065;BME280;20339;49.754;20.158;2023-08-24T02:27:58;96917.39;;;17.31;86.29
34065;BME280;20339;49.754;20.158;2023-08-24T02:30:26;96916.66;;;17.26;86.46
34065;BME280;20339;49.754;20.158;2023-08-24T02:32:55;96914.17;;;17.19;86.56
34065;BME280;20339;49.754;20.158;2023-08-24T02:35:23;96918.34;;;17.15;86.85
34065;BME280;20339;49.754;20.158;2023-08-24T02:37:52;96920.48;;;17.10;86.84
34065;BME280;20339;49.754;20.158;2023-08-24T02:40:22;96920.26;;;17.10;87.37
34065;BME280;20339;49.754;20.158;2023-08-24T02:42:50;96920.52;;;17.18;88.02
34065;BME280;20339;49.754;20.158;2023-08-24T02:45:19;96924.57;;;17.23;88.36
34065;BME280;20339;49.754;20.158;2023-08-24T02:47:47;96925.95;;;17.21;88.03
34065;BME280;20339;49.754;20.158;2023-08-24T02:50:15;96926.99;;;17.07;87.38
34065;BME280;20339;49.754;20.158;2023-08-24T02:52:44;96928.92;;;16.93;87.63
34065;BME280;20339;49.754;20.158;2023-08-24T02:55:15;96928.75;;;16.84;87.94
34065;BME280;20339;49.754;20.158;2023-08-24T02:57:44;96922.86;;;16.85;88.40
34065;BME280;20339;49.754;20.158;2023-08-24T03:00:13;96929.94;;;16.88;88.64
34065;BME280;20339;49.754;20.158;2023-08-24T03:02:42;96927.50;;;16.90;88.77
34065;BME280;20339;49.754;20.158;2023-08-24T03:05:10;96925.46;;;16.94;88.98
34065;BME280;20339;49.754;20.158;2023-08-24T03:07:38;96928.11;;;16.95;89.04
34065;BME280;20339;49.754;20.158;2023-08-24T03:10:08;96928.64;;;16.98;89.23
34065;BME280;20339;49.754;20.158;2023-08-24T03:12:37;96931.91;;;17.04;89.55
34065;BME280;20339;49.754;20.158;2023-08-24T03:15:07;96930.37;;;17.11;89.56
34065;BME280;20339;49.754;20.158;2023-08-24T03:17:35;96924.98;;;17.02;88.90
34065;BME280;20339;49.754;20.158;2023-08-24T03:20:06;96928.98;;;17.01;89.29
34065;BME280;20339;49.754;20.158;2023-08-24T03:22:35;96925.05;;;17.06;89.63
34065;BME280;20339;49.754;20.158;2023-08-24T03:25:04;96924.30;;;17.13;89.51
34065;BME280;20339;49.754;20.158;2023-08-24T03:27:32;96926.09;;;17.16;89.32
34065;BME280;20339;49.754;20.158;2023-08-24T03:30:01;96924.80;;;17.09;89.02
34065;BME280;20339;49.754;20.158;2023-08-24T03:32:31;96925.80;;;17.00;89.13
34065;BME280;20339;49.754;20.158;2023-08-24T03:35:01;96925.55;;;16.96;89.75
34065;BME280;20339;49.754;20.158;2023-08-24T03:37:30;96920.27;;;17.01;90.48
34065;BME280;20339;49.754;20.158;2023-08-24T03:39:58;96924.38;;;17.09;90.91
34065;BME280;20339;49.754;20.158;2023-08-24T03:42:29;96928.84;;;17.15;90.86
34065;BME280;20339;49.754;20.158;2023-08-24T03:44:59;96930.60;;;17.17;90.42
34065;BME280;20339;49.754;20.158;2023-08-24T03:47:28;96934.70;;;17.11;90.23
34065;BME280;20339;49.754;20.158;2023-08-24T03:49:56;96936.67;;;16.98;90.07
34065;BME280;20339;49.754;20.158;2023-08-24T03:52:24;96937.98;;;16.90;90.38
34065;BME280;20339;49.754;20.158;2023-08-24T03:54:53;96940.73;;;16.84;91.15
34065;BME280;20339;49.754;20.158;2023-08-24T03:57:21;96936.81;;;16.90;92.35
34065;BME280;20339;49.754;20.158;2023-08-24T03:59:49;96941.30;;;16.91;92.13
34065;BME280;20339;49.754;20.158;2023-08-24T04:02:18;96942.11;;;16.90;92.54
34065;BME280;20339;49.754;20.158;2023-08-24T04:04:46;96942.02;;;16.95;93.14
34065;BME280;20339;49.754;20.158;2023-08-24T04:07:14;96943.64;;;16.97;93.38
34065;BME280;20339;49.754;20.158;2023-08-24T04:09:43;96941.21;;;16.99;93.71
34065;BME280;20339;49.754;20.158;2023-08-24T04:12:12;96944.84;;;16.99;94.18
34065;BME280;20339;49.754;20.158;2023-08-24T04:14:40;96940.67;;;17.00;94.39
34065;BME280;20339;49.754;20.158;2023-08-24T04:17:08;96943.89;;;17.03;94.56
34065;BME280;20339;49.754;20.158;2023-08-24T04:19:39;96946.10;;;17.05;94.69
34065;BME280;20339;49.754;20.158;2023-08-24T04:22:07;96945.52;;;17.06;94.83
34065;BME280;20339;49.754;20.158;2023-08-24T04:24:36;96943.61;;;17.11;95.24
34065;BME280;20339;49.754;20.158;2023-08-24T04:27:04;96946.80;;;17.11;95.37
34065;BME280;20339;49.754;20.158;2023-08-24T04:29:34;96940.14;;;17.10;95.64
34065;BME280;20339;49.754;20.158;2023-08-24T04:32:02;96939.60;;;17.10;96.16
34065;BME280;20339;49.754;20.158;2023-08-24T04:34:30;96939.23;;;17.14;96.83
34065;BME280;20339;49.754;20.158;2023-08-24T04:36:59;96940.99;;;17.22;97.36
34065;BME280;20339;49.754;20.158;2023-08-24T04:39:29;96939.17;;;17.47;98.55
34065;BME280;20339;49.754;20.158;2023-08-24T04:41:58;96945.25;;;17.77;98.30
34065;BME280;20339;49.754;20.158;2023-08-24T04:44:27;96944.36;;;17.98;97.51
34065;BME280;20339;49.754;20.158;2023-08-24T04:46:55;96944.16;;;18.13;97.17
34065;BME280;20339;49.754;20.158;2023-08-24T04:49:24;96942.50;;;18.45;97.54
34065;BME280;20339;49.754;20.158;2023-08-24T04:51:52;96942.52;;;18.71;96.76
34065;BME280;20339;49.754;20.158;2023-08-24T04:54:20;96938.73;;;18.83;96.81
34065;BME280;20339;49.754;20.158;2023-08-24T04:56:49;96937.83;;;19.07;96.78
34065;BME280;20339;49.754;20.158;2023-08-24T04:59:17;96942.10;;;19.42;97.10
34065;BME280;20339;49.754;20.158;2023-08-24T05:01:46;96942.31;;;19.88;96.95
34065;BME280;20339;49.754;20.158;2023-08-24T05:04:15;96941.05;;;20.26;95.95
34065;BME280;20339;49.754;20.158;2023-08-24T05:06:43;96940.52;;;20.52;94.35
34065;BME280;20339;49.754;20.158;2023-08-24T05:09:12;96940.59;;;20.37;91.33
34065;BME280;20339;49.754;20.158;2023-08-24T05:11:40;96944.25;;;19.97;90.56
34065;BME280;20339;49.754;20.158;2023-08-24T05:14:08;96944.27;;;19.71;90.93
34065;BME280;20339;49.754;20.158;2023-08-24T05:16:36;96950.87;;;19.59;91.26
34065;BME280;20339;49.754;20.158;2023-08-24T05:19:05;96946.48;;;19.51;91.58
34065;BME280;20339;49.754;20.158;2023-08-24T05:21:33;96952.31;;;19.51;91.68
34065;BME280;20339;49.754;20.158;2023-08-24T05:24:02;96954.30;;;19.46;91.62
34065;BME280;20339;49.754;20.158;2023-08-24T05:26:32;96956.28;;;19.40;91.53
34065;BME280;20339;49.754;20.158;2023-08-24T05:29:01;96960.73;;;19.32;91.19
34065;BME280;20339;49.754;20.158;2023-08-24T05:31:29;96963.79;;;19.17;91.17
34065;BME280;20339;49.754;20.158;2023-08-24T05:33:58;96964.41;;;19.19;92.07
34065;BME280;20339;49.754;20.158;2023-08-24T05:36:26;96960.77;;;19.23;91.98
34065;BME280;20339;49.754;20.158;2023-08-24T05:38:55;96960.35;;;19.53;93.74
34065;BME280;20339;49.754;20.158;2023-08-24T05:41:24;96960.02;;;20.18;94.32
34065;BME280;20339;49.754;20.158;2023-08-24T05:43:53;96960.27;;;20.89;93.90
34065;BME280;20339;49.754;20.158;2023-08-24T05:46:22;96960.02;;;21.55;93.01
34065;BME280;20339;49.754;20.158;2023-08-24T05:48:51;96961.42;;;22.26;91.96
34065;BME280;20339;49.754;20.158;2023-08-24T05:51:20;96962.86;;;22.57;89.35
34065;BME280;20339;49.754;20.158;2023-08-24T05:53:48;96961.70;;;22.84;88.24
34065;BME280;20339;49.754;20.158;2023-08-24T05:56:16;96962.42;;;23.10;86.96
34065;BME280;20339;49.754;20.158;2023-08-24T05:58:45;96961.17;;;23.46;86.61
34065;BME280;20339;49.754;20.158;2023-08-24T06:01:14;96953.77;;;23.90;85.19
34065;BME280;20339;49.754;20.158;2023-08-24T06:03:42;96952.30;;;24.21;83.95
34065;BME280;20339;49.754;20.158;2023-08-24T06:06:11;96956.04;;;24.50;83.13
34065;BME280;20339;49.754;20.158;2023-08-24T06:08:40;96958.21;;;24.82;81.97
34065;BME280;20339;49.754;20.158;2023-08-24T06:11:08;96954.77;;;25.00;80.26
34065;BME280;20339;49.754;20.158;2023-08-24T06:13:37;96957.98;;;25.15;79.54
34065;BME280;20339;49.754;20.158;2023-08-24T06:16:06;96955.73;;;25.09;77.34
34065;BME280;20339;49.754;20.158;2023-08-24T06:18:35;96952.52;;;24.94;77.38
34065;BME280;20339;49.754;20.158;2023-08-24T06:21:04;96947.02;;;24.94;76.60
34065;BME280;20339;49.754;20.158;2023-08-24T06:23:32;96946.02;;;24.99;76.21
34065;BME280;20339;49.754;20.158;2023-08-24T06:26:01;96954.06;;;24.98;75.01
34065;BME280;20339;49.754;20.158;2023-08-24T06:28:32;96956.10;;;24.68;74.49
34065;BME280;20339;49.754;20.158;2023-08-24T06:31:00;96960.55;;;24.51;74.18
34065;BME280;20339;49.754;20.158;2023-08-24T06:33:29;96957.95;;;24.45;74.38
34065;BME280;20339;49.754;20.158;2023-08-24T06:36:02;96957.84;;;24.60;74.94
34065;BME280;20339;49.754;20.158;2023-08-24T06:38:32;96959.09;;;24.70;74.55
34065;BME280;20339;49.754;20.158;2023-08-24T06:41:01;96958.83;;;24.82;74.48
34065;BME280;20339;49.754;20.158;2023-08-24T06:43:31;96953.38;;;24.99;74.10
34065;BME280;20339;49.754;20.158;2023-08-24T06:46:02;96950.35;;;25.12;74.12
34065;BME280;20339;49.754;20.158;2023-08-24T06:48:31;96948.19;;;25.28;74.13
34065;BME280;20339;49.754;20.158;2023-08-24T06:50:59;96952.01;;;25.46;73.78
34065;BME280;20339;49.754;20.158;2023-08-24T06:53:29;96954.37;;;25.54;73.53
34065;BME280;20339;49.754;20.158;2023-08-24T06:55:58;96957.70;;;25.60;72.88
34065;BME280;20339;49.754;20.158;2023-08-24T06:58:26;96953.77;;;25.56;72.62
34065;BME280;20339;49.754;20.158;2023-08-24T07:00:55;96956.96;;;25.62;72.74
34065;BME280;20339;49.754;20.158;2023-08-24T07:03:25;96959.38;;;25.73;72.40
34065;BME280;20339;49.754;20.158;2023-08-24T07:05:54;96959.58;;;25.88;72.30
34065;BME280;20339;49.754;20.158;2023-08-24T07:08:22;96963.04;;;26.05;71.73
34065;BME280;20339;49.754;20.158;2023-08-24T07:10:51;96965.86;;;26.15;71.30
34065;BME280;20339;49.754;20.158;2023-08-24T07:13:20;96968.65;;;26.26;71.07
34065;BME280;20339;49.754;20.158;2023-08-24T07:15:48;96968.52;;;26.34;70.65
34065;BME280;20339;49.754;20.158;2023-08-24T07:18:17;96963.79;;;26.35;70.12
34065;BME280;20339;49.754;20.158;2023-08-24T07:20:45;96970.00;;;26.30;69.92
34065;BME280;20339;49.754;20.158;2023-08-24T07:23:14;96972.13;;;26.32;69.79
34065;BME280;20339;49.754;20.158;2023-08-24T07:25:42;96971.45;;;26.39;69.49
34065;BME280;20339;49.754;20.158;2023-08-24T07:28:10;96974.83;;;26.35;68.61
34065;BME280;20339;49.754;20.158;2023-08-24T07:30:39;96978.11;;;26.37;68.66
34065;BME280;20339;49.754;20.158;2023-08-24T07:33:08;96975.73;;;26.47;68.78
34065;BME280;20339;49.754;20.158;2023-08-24T07:35:36;96978.50;;;26.60;68.69
34065;BME280;20339;49.754;20.158;2023-08-24T07:38:04;96973.46;;;26.77;68.40
34065;BME280;20339;49.754;20.158;2023-08-24T07:40:33;96973.17;;;26.80;67.77
34065;BME280;20339;49.754;20.158;2023-08-24T07:43:01;96969.64;;;26.85;67.14
34065;BME280;20339;49.754;20.158;2023-08-24T07:45:30;96971.40;;;26.82;66.80
34065;BME280;20339;49.754;20.158;2023-08-24T07:47:58;96973.41;;;26.79;66.75
34065;BME280;20339;49.754;20.158;2023-08-24T07:50:27;96972.33;;;26.81;66.46
34065;BME280;20339;49.754;20.158;2023-08-24T07:52:55;96974.30;;;26.93;67.08
34065;BME280;20339;49.754;20.158;2023-08-24T07:55:24;96974.38;;;27.08;66.85
34065;BME280;20339;49.754;20.158;2023-08-24T07:57:53;96975.61;;;27.27;67.14
34065;BME280;20339;49.754;20.158;2023-08-24T08:00:22;96977.92;;;27.35;66.65
34065;BME280;20339;49.754;20.158;2023-08-24T08:02:52;96977.28;;;27.33;65.75
34065;BME280;20339;49.754;20.158;2023-08-24T08:05:21;96976.88;;;27.19;65.51
34065;BME280;20339;49.754;20.158;2023-08-24T08:07:50;96973.70;;;26.78;64.86
34065;BME280;20339;49.754;20.158;2023-08-24T08:10:18;96978.33;;;26.44;65.38
34065;BME280;20339;49.754;20.158;2023-08-24T08:12:49;96977.38;;;26.10;65.37
34065;BME280;20339;49.754;20.158;2023-08-24T08:15:18;96975.73;;;25.72;65.69
34065;BME280;20339;49.754;20.158;2023-08-24T08:17:46;96974.09;;;25.44;65.73
34065;BME280;20339;49.754;20.158;2023-08-24T08:20:17;96976.97;;;25.24;65.83
34065;BME280;20339;49.754;20.158;2023-08-24T08:22:45;96977.60;;;25.20;66.29
34065;BME280;20339;49.754;20.158;2023-08-24T08:25:16;96972.58;;;25.37;66.50
34065;BME280;20339;49.754;20.158;2023-08-24T08:27:45;96975.67;;;25.62;66.90
34065;BME280;20339;49.754;20.158;2023-08-24T08:30:14;96977.98;;;25.96;66.59
34065;BME280;20339;49.754;20.158;2023-08-24T08:32:43;96980.86;;;26.28;65.83
34065;BME280;20339;49.754;20.158;2023-08-24T08:35:11;96977.33;;;26.52;65.29
34065;BME280;20339;49.754;20.158;2023-08-24T08:37:40;96973.39;;;26.47;62.80
34065;BME280;20339;49.754;20.158;2023-08-24T08:40:12;96972.16;;;26.41;62.68
34065;BME280;20339;49.754;20.158;2023-08-24T08:42:41;96968.91;;;26.16;61.29
34065;BME280;20339;49.754;20.158;2023-08-24T08:45:11;96970.31;;;25.96;61.86
34065;BME280;20339;49.754;20.158;2023-08-24T08:47:40;96969.34;;;25.87;60.52
34065;BME280;20339;49.754;20.158;2023-08-24T08:50:09;96975.02;;;25.89;60.54
34065;BME280;20339;49.754;20.158;2023-08-24T08:52:37;96976.58;;;26.02;60.47
34065;BME280;20339;49.754;20.158;2023-08-24T08:55:07;96976.81;;;26.01;59.57
34065;BME280;20339;49.754;20.158;2023-08-24T08:57:38;96973.24;;;26.15;58.94
34065;BME280;20339;49.754;20.158;2023-08-24T09:00:11;96971.87;;;26.30;59.08
34065;BME280;20339;49.754;20.158;2023-08-24T09:02:42;96968.24;;;26.37;58.72
34065;BME280;20339;49.754;20.158;2023-08-24T09:05:12;96965.70;;;26.55;58.93
34065;BME280;20339;49.754;20.158;2023-08-24T09:07:41;96968.16;;;26.84;59.00
34065;BME280;20339;49.754;20.158;2023-08-24T09:10:10;96971.09;;;27.06;57.99
34065;BME280;20339;49.754;20.158;2023-08-24T09:12:39;96972.13;;;27.19;57.71
34065;BME280;20339;49.754;20.158;2023-08-24T09:15:10;96973.65;;;27.27;57.77
34065;BME280;20339;49.754;20.158;2023-08-24T09:17:44;96968.01;;;27.31;57.25
34065;BME280;20339;49.754;20.158;2023-08-24T09:20:15;96969.08;;;27.28;56.67
34065;BME280;20339;49.754;20.158;2023-08-24T09:22:44;96970.92;;;27.35;56.76
34065;BME280;20339;49.754;20.158;2023-08-24T09:25:13;96964.67;;;27.32;55.33
34065;BME280;20339;49.754;20.158;2023-08-24T09:27:42;96961.28;;;27.37;54.99
34065;BME280;20339;49.754;20.158;2023-08-24T09:30:11;96960.35;;;27.39;54.39
34065;BME280;20339;49.754;20.158;2023-08-24T09:32:41;96961.77;;;27.28;53.93
34065;BME280;20339;49.754;20.158;2023-08-24T09:35:11;96956.74;;;27.22;53.41
34065;BME280;20339;49.754;20.158;2023-08-24T09:37:42;96952.66;;;27.16;53.30
34065;BME280;20339;49.754;20.158;2023-08-24T09:40:14;96956.52;;;27.23;53.95
34065;BME280;20339;49.754;20.158;2023-08-24T09:42:45;96956.14;;;27.35;53.51
34065;BME280;20339;49.754;20.158;2023-08-24T09:45:15;96959.15;;;27.22;52.20
34065;BME280;20339;49.754;20.158;2023-08-24T09:47:50;96956.22;;;26.98;52.17
34065;BME280;20339;49.754;20.158;2023-08-24T09:50:20;96955.25;;;26.93;52.04
34065;BME280;20339;49.754;20.158;2023-08-24T09:52:51;96953.68;;;26.74;51.50
34065;BME280;20339;49.754;20.158;2023-08-24T09:55:24;96954.14;;;26.48;51.15
34065;BME280;20339;49.754;20.158;2023-08-24T09:57:54;96954.20;;;26.26;50.85
34065;BME280;20339;49.754;20.158;2023-08-24T10:00:26;96953.44;;;26.28;51.54
34065;BME280;20339;49.754;20.158;2023-08-24T10:02:56;96953.23;;;26.22;51.17
34065;BME280;20339;49.754;20.158;2023-08-24T10:05:26;96953.31;;;26.22;51.17
34065;BME280;20339;49.754;20.158;2023-08-24T10:07:57;96952.73;;;26.07;50.56
34065;BME280;20339;49.754;20.158;2023-08-24T10:10:28;96948.02;;;25.95;50.80
34065;BME280;20339;49.754;20.158;2023-08-24T10:13:00;96951.92;;;25.98;51.36
34065;BME280;20339;49.754;20.158;2023-08-24T10:15:35;96955.61;;;26.07;50.90
34065;BME280;20339;49.754;20.158;2023-08-24T10:18:06;96955.98;;;26.00;50.53
34065;BME280;20339;49.754;20.158;2023-08-24T10:20:37;96955.54;;;26.01;50.78
34065;BME280;20339;49.754;20.158;2023-08-24T10:23:07;96958.34;;;25.94;50.83
34065;BME280;20339;49.754;20.158;2023-08-24T10:25:38;96955.05;;;25.80;50.44
34065;BME280;20339;49.754;20.158;2023-08-24T10:28:10;96956.51;;;25.78;50.73
34065;BME280;20339;49.754;20.158;2023-08-24T10:30:40;96954.95;;;25.84;51.11
34065;BME280;20339;49.754;20.158;2023-08-24T10:33:12;96956.61;;;26.00;51.26
34065;BME280;20339;49.754;20.158;2023-08-24T10:35:42;96950.77;;;26.04;50.87
34065;BME280;20339;49.754;20.158;2023-08-24T10:38:24;96947.73;;;26.10;51.32
34065;BME280;20339;49.754;20.158;2023-08-24T10:40:55;96938.84;;;26.20;51.76
34065;BME280;20339;49.754;20.158;2023-08-24T10:43:30;96935.55;;;26.32;51.87
34065;BME280;20339;49.754;20.158;2023-08-24T10:46:02;96935.98;;;26.35;50.98
34065;BME280;20339;49.754;20.158;2023-08-24T10:48:59;96933.48;;;26.33;50.52
34065;BME280;20339;49.754;20.158;2023-08-24T10:51:28;96929.24;;;26.17;49.89
34065;BME280;20339;49.754;20.158;2023-08-24T10:53:59;96928.88;;;26.11;50.33
34065;BME280;20339;49.754;20.158;2023-08-24T10:56:34;96926.81;;;26.15;50.57
34065;BME280;20339;49.754;20.158;2023-08-24T10:59:17;96921.68;;;26.06;49.86
34065;BME280;20339;49.754;20.158;2023-08-24T11:01:58;96918.84;;;25.94;49.96
34065;BME280;20339;49.754;20.158;2023-08-24T11:04:28;96920.44;;;25.87;50.05
34065;BME280;20339;49.754;20.158;2023-08-24T11:06:58;96918.81;;;25.92;50.18
34065;BME280;20339;49.754;20.158;2023-08-24T11:09:45;96923.18;;;25.95;50.35
34065;BME280;20339;49.754;20.158;2023-08-24T11:12:15;96924.98;;;25.84;49.42
34065;BME280;20339;49.754;20.158;2023-08-24T11:14:51;96919.96;;;25.79;49.74
34065;BME280;20339;49.754;20.158;2023-08-24T11:17:22;96922.52;;;25.87;50.16
34065;BME280;20339;49.754;20.158;2023-08-24T11:19:52;96920.49;;;25.91;50.29
34065;BME280;20339;49.754;20.158;2023-08-24T11:22:22;96921.83;;;26.06;51.18
34065;BME280;20339;49.754;20.158;2023-08-24T11:24:51;96917.67;;;26.24;51.41
34065;BME280;20339;49.754;20.158;2023-08-24T11:27:22;96914.58;;;26.39;51.58
34065;BME280;20339;49.754;20.158;2023-08-24T11:30:00;96909.50;;;26.44;50.70
34065;BME280;20339;49.754;20.158;2023-08-24T11:32:29;96907.20;;;26.37;49.97
34065;BME280;20339;49.754;20.158;2023-08-24T11:34:58;96907.91;;;26.38;49.95
34065;BME280;20339;49.754;20.158;2023-08-24T11:37:27;96904.81;;;26.34;49.71
34065;BME280;20339;49.754;20.158;2023-08-24T11:39:55;96902.64;;;26.34;49.62
34065;BME280;20339;49.754;20.158;2023-08-24T11:42:24;96901.63;;;26.41;50.04
34065;BME280;20339;49.754;20.158;2023-08-24T11:44:53;96900.04;;;26.52;50.23
34065;BME280;20339;49.754;20.158;2023-08-24T11:47:21;96900.67;;;26.54;49.79
34065;BME280;20339;49.754;20.158;2023-08-24T11:49:52;96896.88;;;26.58;49.75
34065;BME280;20339;49.754;20.158;2023-08-24T11:52:20;96897.36;;;26.59;49.87
34065;BME280;20339;49.754;20.158;2023-08-24T11:54:52;96897.06;;;26.67;50.28
34065;BME280;20339;49.754;20.158;2023-08-24T11:57:21;96896.30;;;26.62;49.26
34065;BME280;20339;49.754;20.158;2023-08-24T11:59:50;96893.36;;;26.62;49.29
34065;BME280;20339;49.754;20.158;2023-08-24T12:02:19;96889.45;;;26.67;49.42
34065;BME280;20339;49.754;20.158;2023-08-24T12:04:50;96892.16;;;26.68;49.53
34065;BME280;20339;49.754;20.158;2023-08-24T12:07:21;96887.76;;;26.72;49.06
34065;BME280;20339;49.754;20.158;2023-08-24T12:09:50;96894.87;;;26.65;48.36
34065;BME280;20339;49.754;20.158;2023-08-24T12:12:21;96892.83;;;26.54;48.33
34065;BME280;20339;49.754;20.158;2023-08-24T12:14:52;96888.84;;;26.51;48.96
34065;BME280;20339;49.754;20.158;2023-08-24T12:17:21;96886.59;;;26.61;49.20
34065;BME280;20339;49.754;20.158;2023-08-24T12:19:58;96878.81;;;26.60;48.38
34065;BME280;20339;49.754;20.158;2023-08-24T12:22:28;96880.65;;;26.58;48.37
34065;BME280;20339;49.754;20.158;2023-08-24T12:24:57;96882.13;;;26.57;48.52
34065;BME280;20339;49.754;20.158;2023-08-24T12:27:27;96884.67;;;26.64;49.20
34065;BME280;20339;49.754;20.158;2023-08-24T12:29:59;96880.83;;;26.58;47.80
34065;BME280;20339;49.754;20.158;2023-08-24T12:32:42;96870.17;;;26.41;47.33
34065;BME280;20339;49.754;20.158;2023-08-24T12:35:13;96867.56;;;26.44;48.15
34065;BME280;20339;49.754;20.158;2023-08-24T12:37:42;96866.48;;;26.53;48.18
34065;BME280;20339;49.754;20.158;2023-08-24T12:40:12;96862.48;;;26.58;48.28
34065;BME280;20339;49.754;20.158;2023-08-24T12:42:41;96861.11;;;26.61;48.14
34065;BME280;20339;49.754;20.158;2023-08-24T12:45:10;96863.60;;;26.62;47.98
34065;BME280;20339;49.754;20.158;2023-08-24T12:47:37;96861.66;;;26.61;47.55
34065;BME280;20339;49.754;20.158;2023-08-24T12:50:08;96857.80;;;26.55;48.05
34065;BME280;20339;49.754;20.158;2023-08-24T12:52:37;96851.35;;;26.65;49.03
34065;BME280;20339;49.754;20.158;2023-08-24T12:55:07;96850.27;;;26.77;49.24
34065;BME280;20339;49.754;20.158;2023-08-24T12:57:34;96845.65;;;26.85;49.18
34065;BME280;20339;49.754;20.158;2023-08-24T13:00:03;96847.05;;;26.84;48.80
34065;BME280;20339;49.754;20.158;2023-08-24T13:02:33;96845.80;;;26.84;48.98